Sabine Pass, TX

2:43 AM CDT on November 01, 2014 (GMT -0500)
MARITIME | Change Station
CLOSE
Current Station
Personal Weather Station
Location: Sabine Pass, TX
Elevation: 3 ft
Nearby Weather Stations

Elev 3 ft 29.67 °N, 94.05 °W | Updated 43 minutes ago

Clear
Clear
57 °F
Feels Like 57 °F
N
7
Wind Variable Wind from NNE
Gusts 9.0 mph

Today
High -- | Low -- °F
--% Chance of Precip.
Yesterday
High -- | Low -- °F
Precip. -- in
7:29 AM 6:28 PM
Waxing Gibbous, 64% visible
Pressure 30.26 in
Visibility 10.0 miles
Clouds Clear
Dew Point 47 °F
Humidity 69%
Rainfall -999.00 in
Snow Depth Not available.
UV 0 out of 12
Pollen 4.60 out of 12
Air Quality Not available.
Flu Activity Not available.
METAR KBPT 010653Z AUTO 01006KT 10SM CLR 11/07 A3026

More Conditions Fewer Conditions

Pressure 30.26 in
Visibility 10.0 miles
Clouds Clear
Dew Point 47 °F
Humidity 69%
Rainfall -999.00 in
Snow Depth Not available.
UV 0 out of 12
Pollen 4.60 out of 12
Air Quality Not available.
Flu Activity Not available.
METAR KBPT 010653Z AUTO 01006KT 10SM CLR 11/07 A3026

More Conditions Fewer Conditions

10-Day Weather Forecast

Almanac

Astronomy

Nov. 01, 2014 Rise Set
Actual Time
Civil Twilight
Nautical Twilight
Astronomical Twilight
Moon
Length of Visible Light
Length of Day
Tomorrow will be .
, % of the Moon is Illuminated

Today's Extremes

State Highs State Lows

Community

WunderPhotos

Upload Photos

1,766,866 photos uploaded!

WunderBlogs® & News

Nearby

Air Quality

  Air Quality AQ Index Pollutant
Not available.

Snow Depth

Station Depth Elevation

Earthquake Activity

City Distance Mag. Time & Date
Minimum magnitude displayed is 2.5.

Coastal Water Temperatures

Place Temperature

Nearby Weather Stations